createdAt,value
2019-03-03T00:00:42.947Z,3.00
2019-03-03T00:03:10.255Z,4.17
2019-03-03T00:05:37.537Z,3.87
2019-03-03T00:08:04.639Z,3.80
2019-03-03T00:10:31.632Z,3.70
2019-03-03T00:12:59.211Z,4.37
2019-03-03T00:15:26.727Z,4.70
2019-03-03T00:17:55.103Z,4.67
2019-03-03T00:20:22.193Z,4.63
2019-03-03T00:22:49.607Z,4.77
2019-03-03T00:25:16.779Z,5.30
2019-03-03T00:27:44.009Z,4.40
2019-03-03T00:30:11.488Z,3.97
2019-03-03T00:32:38.647Z,4.20
2019-03-03T00:35:05.915Z,9.40
2019-03-03T00:37:53.376Z,14.83
2019-03-03T00:40:38.710Z,4.40
2019-03-03T00:43:18.122Z,4.80
2019-03-03T00:45:54.771Z,4.70
2019-03-03T00:48:44.752Z,4.70
2019-03-03T00:51:24.511Z,4.70
2019-03-03T00:54:15.463Z,4.23
2019-03-03T00:56:58.860Z,4.53
2019-03-03T00:59:44.259Z,4.87
2019-03-03T01:02:20.979Z,4.33
2019-03-03T01:04:54.964Z,3.73
2019-03-03T01:07:44.535Z,4.37
2019-03-03T01:10:22.123Z,4.80
2019-03-03T01:12:57.588Z,4.27
2019-03-03T01:15:49.163Z,4.13
2019-03-03T01:18:39.696Z,4.53
2019-03-03T01:21:17.137Z,4.90
2019-03-03T01:24:07.247Z,4.27
2019-03-03T01:26:34.596Z,4.67
2019-03-03T01:29:01.560Z,5.10
2019-03-03T01:31:28.996Z,5.10
2019-03-03T01:33:55.988Z,4.27
2019-03-03T01:36:23.315Z,4.87
2019-03-03T01:38:50.923Z,5.67
2019-03-03T01:41:19.703Z,4.87
2019-03-03T01:43:46.821Z,6.30
2019-03-03T01:46:13.712Z,5.50
2019-03-03T01:48:41.127Z,4.80
2019-03-03T01:51:08.617Z,6.10
2019-03-03T01:53:35.855Z,5.20
2019-03-03T01:56:03.483Z,5.00
2019-03-03T01:58:31.412Z,6.03
2019-03-03T02:00:58.800Z,5.40
2019-03-03T02:03:26.467Z,4.20
2019-03-03T02:05:53.508Z,4.53
2019-03-03T02:08:21.249Z,4.87
2019-03-03T02:10:49.129Z,5.00
2019-03-03T02:13:16.939Z,5.17
2019-03-03T02:15:44.056Z,5.17
2019-03-03T02:18:11.727Z,5.03
2019-03-03T02:20:38.836Z,5.27
2019-03-03T02:23:06.465Z,5.97
2019-03-03T02:25:33.696Z,5.70
2019-03-03T02:28:00.844Z,5.60
2019-03-03T02:30:28.137Z,7.57
2019-03-03T02:32:55.138Z,11.27
2019-03-03T02:35:23.681Z,9.33
2019-03-03T02:37:50.866Z,10.50
2019-03-03T02:40:18.290Z,8.23
2019-03-03T02:42:45.839Z,11.00
2019-03-03T02:45:18.761Z,5.83
2019-03-03T02:47:45.919Z,4.97
2019-03-03T02:50:13.439Z,5.17
2019-03-03T02:52:40.961Z,4.20
2019-03-03T02:55:10.097Z,5.37
2019-03-03T02:57:37.292Z,4.70
2019-03-03T03:00:09.647Z,3.87
2019-03-03T03:02:47.501Z,4.10
2019-03-03T03:05:22.324Z,4.40
2019-03-03T03:08:15.141Z,4.83
2019-03-03T03:11:01.041Z,4.53
2019-03-03T03:13:43.392Z,3.93
2019-03-03T03:16:16.891Z,4.77
2019-03-03T03:18:54.903Z,5.07
2019-03-03T03:21:36.285Z,5.63
2019-03-03T03:24:27.500Z,4.20
2019-03-03T03:27:01.571Z,4.43
2019-03-03T03:30:00.533Z,4.27
2019-03-03T03:32:35.993Z,3.87
2019-03-03T03:35:12.830Z,4.00
2019-03-03T03:37:58.830Z,3.70
2019-03-03T03:40:39.181Z,2.97
2019-03-03T03:43:24.176Z,3.90
2019-03-03T03:46:03.584Z,3.97
2019-03-03T03:48:41.020Z,3.50
2019-03-03T03:51:14.999Z,4.30
2019-03-03T03:53:56.778Z,3.37
2019-03-03T03:56:50.668Z,3.30
2019-03-03T03:59:26.150Z,3.27
2019-03-03T04:02:16.488Z,3.70
2019-03-03T04:05:05.789Z,3.60
2019-03-03T04:07:39.705Z,3.00
2019-03-03T04:10:21.164Z,3.43
2019-03-03T04:13:08.191Z,3.07
2019-03-03T04:15:55.403Z,3.40
2019-03-03T04:18:35.649Z,3.77
2019-03-03T04:21:18.369Z,2.77
2019-03-03T04:24:05.884Z,3.37
2019-03-03T04:26:47.723Z,3.40
2019-03-03T04:29:29.474Z,3.43
2019-03-03T04:32:23.308Z,3.17
2019-03-03T04:35:14.156Z,3.27
2019-03-03T04:38:01.059Z,3.00
2019-03-03T04:40:48.010Z,3.20
2019-03-03T04:43:41.402Z,2.87
2019-03-03T04:46:43.431Z,2.90
2019-03-03T04:49:24.599Z,3.47
2019-03-03T04:52:17.869Z,3.00
2019-03-03T04:55:06.956Z,2.83
2019-03-03T04:57:58.239Z,2.60
2019-03-03T05:00:46.003Z,2.77
2019-03-03T05:03:29.036Z,2.93
2019-03-03T05:06:16.091Z,3.40
2019-03-03T05:08:49.324Z,2.40
2019-03-03T05:12:20.978Z,2.00
2019-03-03T05:14:48.705Z,3.20
2019-03-03T05:17:32.087Z,2.67
2019-03-03T05:20:00.465Z,2.67
2019-03-03T05:22:29.317Z,3.23
2019-03-03T05:24:59.636Z,2.57
2019-03-03T05:27:27.039Z,3.23
2019-03-03T05:29:54.076Z,2.70
2019-03-03T05:32:21.288Z,2.60
2019-03-03T05:34:49.885Z,3.43
2019-03-03T05:37:17.883Z,3.20
2019-03-03T05:39:45.460Z,3.60
2019-03-03T05:42:13.063Z,2.90
2019-03-03T05:44:40.524Z,3.07
2019-03-03T05:47:08.162Z,3.27
2019-03-03T05:49:35.020Z,3.13
2019-03-03T05:52:02.504Z,3.20
2019-03-03T05:54:30.368Z,3.20
2019-03-03T05:56:58.063Z,3.87
2019-03-03T05:59:25.693Z,3.70
2019-03-03T06:01:52.559Z,2.80
2019-03-03T06:04:21.484Z,2.70
2019-03-03T06:06:49.280Z,3.60
2019-03-03T06:09:16.951Z,3.90
2019-03-03T06:11:44.305Z,3.80
2019-03-03T06:14:11.856Z,3.70
2019-03-03T06:16:39.463Z,3.17
2019-03-03T06:19:07.043Z,3.20
2019-03-03T06:21:34.552Z,3.33
2019-03-03T06:24:02.475Z,3.70
2019-03-03T06:26:30.139Z,3.90
2019-03-03T06:28:57.243Z,3.43
2019-03-03T06:31:26.167Z,3.40
2019-03-03T06:33:53.562Z,4.13
2019-03-03T06:36:20.688Z,3.30
2019-03-03T06:38:47.963Z,3.67
2019-03-03T06:41:15.951Z,3.73
2019-03-03T06:43:44.313Z,4.13
2019-03-03T06:46:11.963Z,2.97
2019-03-03T06:48:38.977Z,3.50
2019-03-03T06:51:06.467Z,3.87
2019-03-03T06:53:34.963Z,3.60
2019-03-03T06:56:01.944Z,4.20
2019-03-03T06:58:29.211Z,3.03
2019-03-03T07:00:58.325Z,3.63
2019-03-03T07:03:25.503Z,3.47
2019-03-03T07:05:52.844Z,3.13
2019-03-03T07:08:20.354Z,3.00
2019-03-03T07:10:47.691Z,3.40
2019-03-03T07:13:15.332Z,3.50
2019-03-03T07:15:42.791Z,3.37
2019-03-03T07:18:10.964Z,3.60
2019-03-03T07:20:39.744Z,3.43
2019-03-03T07:23:07.754Z,3.10
2019-03-03T07:25:35.124Z,2.80
2019-03-03T07:28:02.732Z,3.00
2019-03-03T07:30:30.425Z,3.13
2019-03-03T07:33:14.170Z,3.10
2019-03-03T07:35:41.715Z,2.93
2019-03-03T07:38:09.702Z,3.47
2019-03-03T07:40:36.695Z,3.83
2019-03-03T07:43:04.245Z,3.10
2019-03-03T07:45:33.579Z,3.40
2019-03-03T07:48:00.527Z,3.53
2019-03-03T07:50:27.833Z,2.77
2019-03-03T07:52:54.864Z,3.40
2019-03-03T07:55:22.592Z,3.33
2019-03-03T07:57:49.931Z,3.80
2019-03-03T08:00:18.307Z,3.07
2019-03-03T08:02:46.185Z,3.57
2019-03-03T08:05:13.499Z,3.10
2019-03-03T08:07:41.336Z,3.33
2019-03-03T08:10:08.640Z,3.77
2019-03-03T08:12:36.820Z,3.80
2019-03-03T08:15:04.465Z,3.07
2019-03-03T08:17:32.944Z,2.60
2019-03-03T08:20:00.399Z,3.30
2019-03-03T08:22:28.313Z,3.07
2019-03-03T08:24:56.715Z,3.03
2019-03-03T08:27:24.614Z,3.00
2019-03-03T08:29:52.674Z,3.53
2019-03-03T08:32:21.087Z,3.63
2019-03-03T08:34:48.383Z,3.47
2019-03-03T08:37:17.760Z,2.53
2019-03-03T08:39:44.728Z,2.70
2019-03-03T08:42:30.508Z,2.90
2019-03-03T08:45:15.934Z,3.80
2019-03-03T08:48:09.286Z,3.87
2019-03-03T08:50:51.259Z,2.50
2019-03-03T08:53:25.548Z,3.13
2019-03-03T08:56:19.996Z,3.57
2019-03-03T08:59:10.972Z,3.07
2019-03-03T09:01:56.400Z,3.07
2019-03-03T09:04:41.656Z,2.40
2019-03-03T09:07:19.805Z,3.17
2019-03-03T09:09:55.955Z,3.00
2019-03-03T09:12:46.055Z,3.07
2019-03-03T09:15:19.156Z,2.37
2019-03-03T09:17:54.595Z,3.23
2019-03-03T09:20:44.075Z,3.33
2019-03-03T09:23:40.571Z,3.03
2019-03-03T09:26:14.976Z,3.30
2019-03-03T09:29:06.739Z,2.53
2019-03-03T09:31:57.180Z,3.00
2019-03-03T09:34:47.146Z,2.43
2019-03-03T09:37:33.659Z,3.17
2019-03-03T09:40:29.961Z,2.70
2019-03-03T09:43:20.040Z,3.30
2019-03-03T09:46:22.548Z,2.93
2019-03-03T09:49:13.875Z,3.20
2019-03-03T09:52:00.791Z,2.60
2019-03-03T09:54:50.468Z,4.63
2019-03-03T09:57:37.659Z,2.60
2019-03-03T10:00:31.627Z,2.90
2019-03-03T10:03:19.879Z,2.97
2019-03-03T10:06:00.979Z,3.07
2019-03-03T10:08:43.820Z,2.70
2019-03-03T10:11:31.408Z,2.70
2019-03-03T10:14:08.935Z,2.53
2019-03-03T10:17:14.448Z,2.73
2019-03-03T10:20:09.236Z,3.20
2019-03-03T10:22:53.522Z,2.50
2019-03-03T10:25:46.081Z,3.17
2019-03-03T10:28:27.015Z,2.50
2019-03-03T10:31:02.706Z,2.60
2019-03-03T10:33:51.732Z,3.00
2019-03-03T10:36:38.984Z,3.03
2019-03-03T10:39:30.118Z,3.40
2019-03-03T10:42:13.895Z,2.50
2019-03-03T10:44:51.508Z,2.20
2019-03-03T10:47:50.907Z,2.67
2019-03-03T10:50:40.425Z,3.43
2019-03-03T10:53:16.347Z,2.47
2019-03-03T10:56:02.370Z,2.57
2019-03-03T10:58:35.956Z,2.60
2019-03-03T11:01:10.873Z,2.47
2019-03-03T11:04:06.887Z,2.10
2019-03-03T11:06:48.377Z,2.50
2019-03-03T11:09:28.356Z,2.63
2019-03-03T11:12:18.440Z,2.63
2019-03-03T11:14:56.936Z,2.60
2019-03-03T11:17:35.332Z,3.60
2019-03-03T11:20:24.215Z,2.70
2019-03-03T11:23:11.087Z,3.20
2019-03-03T11:25:57.193Z,2.50
2019-03-03T11:28:44.016Z,3.90
2019-03-03T11:31:38.547Z,2.87
2019-03-03T11:34:30.985Z,2.43
2019-03-03T11:37:08.573Z,3.07
2019-03-03T11:39:57.745Z,3.73
2019-03-03T11:42:36.936Z,3.20
2019-03-03T11:45:32.235Z,2.90
2019-03-03T11:48:22.363Z,2.90
2019-03-03T11:51:04.447Z,2.83
2019-03-03T11:53:41.864Z,2.50
2019-03-03T11:56:37.993Z,2.60
2019-03-03T11:59:36.371Z,2.77
2019-03-03T12:02:18.836Z,2.73
2019-03-03T12:04:58.231Z,2.73
2019-03-03T12:07:36.616Z,3.30
2019-03-03T12:10:24.625Z,2.97
2019-03-03T12:13:09.631Z,2.93
2019-03-03T12:15:59.875Z,2.63
2019-03-03T12:18:46.151Z,2.90
2019-03-03T12:21:23.706Z,2.83
2019-03-03T12:24:02.136Z,2.80
2019-03-03T12:26:49.920Z,2.80
2019-03-03T12:29:35.667Z,2.40
2019-03-03T12:32:28.415Z,2.70
2019-03-03T12:35:04.728Z,3.23
2019-03-03T12:37:39.965Z,2.40
2019-03-03T12:40:25.083Z,3.13
2019-03-03T12:43:04.344Z,2.60
2019-03-03T12:45:57.479Z,3.50
2019-03-03T12:49:02.176Z,2.20
2019-03-03T12:51:51.852Z,2.43
2019-03-03T12:54:36.856Z,3.13
2019-03-03T12:57:13.312Z,2.93
2019-03-03T13:00:04.003Z,3.07
2019-03-03T13:02:53.732Z,2.77
2019-03-03T13:05:39.860Z,2.63
2019-03-03T13:08:25.384Z,2.83
2019-03-03T13:11:12.600Z,3.70
2019-03-03T13:13:58.904Z,2.43
2019-03-03T13:16:40.544Z,3.30
2019-03-03T13:19:17.836Z,2.80
2019-03-03T13:22:11.796Z,2.87
2019-03-03T13:25:10.893Z,2.80
2019-03-03T13:27:50.087Z,2.47
2019-03-03T13:30:40.180Z,2.10
2019-03-03T13:33:28.560Z,3.30
2019-03-03T13:36:29.539Z,2.90
2019-03-03T13:39:14.818Z,2.30
2019-03-03T13:42:08.009Z,3.03
2019-03-03T13:44:35.602Z,2.63
2019-03-03T13:47:02.935Z,3.03
2019-03-03T13:49:29.913Z,2.37
2019-03-03T13:51:58.360Z,2.23
2019-03-03T13:54:26.054Z,5.20
2019-03-03T13:56:53.148Z,2.57
2019-03-03T13:59:20.141Z,2.50
2019-03-03T14:01:48.335Z,2.37
2019-03-03T14:04:15.421Z,2.40
2019-03-03T14:06:42.792Z,2.10
2019-03-03T14:09:10.187Z,2.90
2019-03-03T14:11:37.283Z,2.53
2019-03-03T14:14:05.592Z,2.20
2019-03-03T14:16:34.268Z,2.37
2019-03-03T14:19:01.351Z,3.50
2019-03-03T14:21:28.394Z,2.13
2019-03-03T14:23:55.635Z,2.20
2019-03-03T14:26:23.988Z,2.33
2019-03-03T14:28:50.996Z,2.07
2019-03-03T14:31:18.591Z,1.73
2019-03-03T14:33:45.572Z,2.87
2019-03-03T14:36:12.792Z,1.63
2019-03-03T14:38:40.288Z,1.73
2019-03-03T14:41:07.411Z,1.57
2019-03-03T14:43:35.059Z,1.90
2019-03-03T14:46:02.208Z,1.27
2019-03-03T14:48:29.614Z,1.80
2019-03-03T14:50:58.116Z,1.97
2019-03-03T14:53:26.104Z,1.70
2019-03-03T14:55:53.086Z,1.70
2019-03-03T14:58:20.065Z,1.87
2019-03-03T15:00:47.223Z,1.50
2019-03-03T15:03:15.778Z,1.77
2019-03-03T15:05:43.267Z,1.87
2019-03-03T15:08:10.364Z,2.13
2019-03-03T15:10:37.358Z,2.20
2019-03-03T15:13:04.415Z,1.90
2019-03-03T15:15:32.480Z,1.47
2019-03-03T15:17:59.724Z,1.60
2019-03-03T15:20:27.364Z,2.10
2019-03-03T15:22:54.688Z,1.60
2019-03-03T15:25:21.844Z,1.67
2019-03-03T15:27:49.298Z,1.60
2019-03-03T15:30:17.968Z,1.90
2019-03-03T15:32:45.153Z,1.63
2019-03-03T15:35:13.887Z,1.67
2019-03-03T15:37:41.099Z,2.80
2019-03-03T15:40:09.264Z,1.73
2019-03-03T15:42:37.152Z,1.37
2019-03-03T15:45:04.971Z,1.57
2019-03-03T15:47:32.135Z,1.77
2019-03-03T15:49:59.268Z,1.60
2019-03-03T15:52:27.447Z,1.63
2019-03-03T15:54:56.388Z,1.60
2019-03-03T15:57:23.659Z,1.70
2019-03-03T15:59:51.579Z,2.20
2019-03-03T16:02:18.684Z,2.00
2019-03-03T16:04:45.544Z,2.07
2019-03-03T16:07:13.151Z,1.50
2019-03-03T16:09:42.046Z,2.17
2019-03-03T16:12:09.024Z,1.50
2019-03-03T16:14:36.883Z,1.93
2019-03-03T16:17:05.204Z,2.10
2019-03-03T16:19:33.507Z,1.70
2019-03-03T16:22:01.735Z,1.37
2019-03-03T16:24:29.168Z,2.07
2019-03-03T16:26:56.924Z,2.17
2019-03-03T16:29:23.907Z,2.40
2019-03-03T16:31:51.673Z,2.13
2019-03-03T16:34:18.961Z,1.93
2019-03-03T16:36:46.395Z,1.50
2019-03-03T16:39:13.668Z,2.27
2019-03-03T16:41:40.664Z,1.97
2019-03-03T16:44:09.032Z,2.13
2019-03-03T16:46:36.922Z,2.47
2019-03-03T16:49:04.451Z,2.10
2019-03-03T16:51:32.632Z,2.17
2019-03-03T16:54:00.539Z,1.90
2019-03-03T16:56:27.704Z,1.77
2019-03-03T16:58:57.666Z,2.33
2019-03-03T17:01:24.740Z,2.50
2019-03-03T17:03:52.565Z,2.17
2019-03-03T17:06:20.544Z,2.00
2019-03-03T17:08:48.694Z,1.73
2019-03-03T17:11:15.640Z,1.77
2019-03-03T17:13:42.756Z,1.80
2019-03-03T17:16:10.231Z,2.20
2019-03-03T17:18:37.265Z,1.90
2019-03-03T17:21:05.659Z,2.07
2019-03-03T17:23:33.389Z,2.50
2019-03-03T17:26:01.883Z,1.73
2019-03-03T17:28:29.265Z,2.13
2019-03-03T17:30:56.495Z,1.60
2019-03-03T17:33:23.483Z,1.90
2019-03-03T17:35:51.014Z,2.93
2019-03-03T17:38:19.889Z,1.77
2019-03-03T17:40:48.093Z,3.07
2019-03-03T17:43:16.384Z,5.37
2019-03-03T17:45:45.353Z,2.73
2019-03-03T17:48:12.716Z,2.13
2019-03-03T17:50:39.837Z,2.30
2019-03-03T17:53:07.016Z,1.60
2019-03-03T17:55:34.053Z,2.17
2019-03-03T17:58:01.521Z,1.97
2019-03-03T18:00:30.906Z,1.70
2019-03-03T18:02:58.068Z,2.20
2019-03-03T18:05:25.076Z,1.97
2019-03-03T18:07:52.273Z,2.10
2019-03-03T18:10:20.947Z,2.43
2019-03-03T18:12:48.076Z,2.03
2019-03-03T18:15:15.372Z,2.17
2019-03-03T18:17:44.385Z,1.90
2019-03-03T18:20:12.080Z,1.60
2019-03-03T18:22:40.303Z,1.97
2019-03-03T18:25:08.316Z,2.10
2019-03-03T18:27:35.983Z,2.07
2019-03-03T18:30:05.939Z,2.20
2019-03-03T18:32:32.986Z,2.20
2019-03-03T18:35:00.883Z,2.00
2019-03-03T18:37:28.660Z,2.07
2019-03-03T18:39:55.614Z,2.67
2019-03-03T18:42:23.067Z,2.77
2019-03-03T18:44:50.556Z,2.13
2019-03-03T18:47:17.586Z,2.30
2019-03-03T18:49:44.944Z,2.20
2019-03-03T18:52:13.972Z,2.97
2019-03-03T18:54:42.864Z,2.27
2019-03-03T18:57:10.153Z,1.73
2019-03-03T18:59:37.152Z,2.23
2019-03-03T19:02:04.763Z,1.90
2019-03-03T19:04:31.964Z,2.00
2019-03-03T19:06:59.324Z,1.80
2019-03-03T19:09:27.323Z,2.27
2019-03-03T19:11:54.917Z,2.57
2019-03-03T19:14:28.266Z,2.50
2019-03-03T19:16:53.447Z,2.43
2019-03-03T19:19:21.767Z,1.87
2019-03-03T19:21:49.215Z,2.27
2019-03-03T19:24:16.961Z,2.00
2019-03-03T19:26:44.378Z,2.37
2019-03-03T19:29:11.463Z,1.97
2019-03-03T19:31:39.825Z,2.03
2019-03-03T19:34:06.993Z,2.03
2019-03-03T19:36:36.562Z,1.70
2019-03-03T19:39:05.767Z,3.00
2019-03-03T19:41:34.777Z,2.57
2019-03-03T19:44:02.041Z,2.20
2019-03-03T19:46:29.983Z,2.07
2019-03-03T19:48:58.808Z,1.97
2019-03-03T19:51:26.172Z,2.07
2019-03-03T19:53:54.397Z,1.93
2019-03-03T19:56:21.887Z,2.83
2019-03-03T19:58:48.903Z,2.30
2019-03-03T20:01:17.016Z,2.30
2019-03-03T20:03:43.998Z,2.13
2019-03-03T20:06:12.590Z,1.80
2019-03-03T20:08:39.765Z,2.30
2019-03-03T20:11:06.935Z,2.20
2019-03-03T20:13:35.195Z,2.83
2019-03-03T20:16:02.923Z,2.40
2019-03-03T20:18:30.940Z,2.20
2019-03-03T20:20:59.147Z,2.33
2019-03-03T20:23:26.297Z,2.17
2019-03-03T20:25:54.117Z,1.97
2019-03-03T20:28:21.244Z,2.03
2019-03-03T20:30:49.547Z,2.50
2019-03-03T20:33:16.627Z,1.90
2019-03-03T20:35:44.445Z,2.10
2019-03-03T20:38:13.424Z,2.27
2019-03-03T20:40:41.196Z,2.20
2019-03-03T20:43:12.528Z,2.13
2019-03-03T20:45:39.584Z,2.20
2019-03-03T20:48:07.651Z,2.30
2019-03-03T20:50:36.101Z,2.67
2019-03-03T20:53:03.525Z,2.03
2019-03-03T20:55:30.911Z,2.40
2019-03-03T20:57:58.203Z,2.07
2019-03-03T21:00:26.056Z,2.43
2019-03-03T21:02:54.308Z,2.60
2019-03-03T21:05:21.859Z,2.70
2019-03-03T21:07:51.688Z,2.47
2019-03-03T21:10:19.132Z,2.77
2019-03-03T21:12:47.235Z,5.20
2019-03-03T21:15:14.759Z,3.50
2019-03-03T21:17:42.029Z,2.50
2019-03-03T21:20:11.478Z,2.63
2019-03-03T21:22:40.304Z,2.53
2019-03-03T21:25:11.074Z,2.27
2019-03-03T21:27:38.609Z,2.80
2019-03-03T21:30:09.339Z,3.00
2019-03-03T21:32:37.179Z,2.90
2019-03-03T21:35:06.212Z,2.43
2019-03-03T21:37:34.533Z,2.67
2019-03-03T21:40:01.632Z,2.27
2019-03-03T21:42:29.780Z,2.70
2019-03-03T21:44:56.804Z,2.67
2019-03-03T21:47:25.551Z,2.50
2019-03-03T21:49:52.572Z,3.17
2019-03-03T21:52:20.317Z,2.10
2019-03-03T21:54:48.505Z,2.53
2019-03-03T21:57:16.743Z,2.37
2019-03-03T21:59:44.616Z,2.23
2019-03-03T22:02:12.187Z,2.70
2019-03-03T22:04:40.236Z,2.47
2019-03-03T22:07:07.544Z,4.00
2019-03-03T22:09:36.531Z,6.47
2019-03-03T22:12:03.799Z,2.60
2019-03-03T22:14:30.832Z,2.50
2019-03-03T22:16:57.908Z,2.10
2019-03-03T22:19:25.743Z,2.37
2019-03-03T22:21:53.753Z,1.90
2019-03-03T22:24:20.735Z,2.30
2019-03-03T22:26:48.167Z,1.80
2019-03-03T22:29:15.815Z,2.23
2019-03-03T22:31:43.580Z,1.50
2019-03-03T22:34:11.374Z,2.27
2019-03-03T22:36:39.611Z,1.73
2019-03-03T22:39:07.200Z,2.13
2019-03-03T22:41:34.591Z,2.20
2019-03-03T22:44:01.828Z,1.60
2019-03-03T22:46:28.717Z,2.03
2019-03-03T22:48:55.619Z,2.23
2019-03-03T22:51:23.143Z,2.10
2019-03-03T22:53:50.432Z,1.77
2019-03-03T22:56:17.597Z,2.33
2019-03-03T22:58:45.311Z,2.07
2019-03-03T23:01:19.163Z,2.23
2019-03-03T23:04:01.324Z,2.60
2019-03-03T23:06:42.738Z,1.80
2019-03-03T23:09:48.016Z,1.63
2019-03-03T23:13:09.124Z,1.90
2019-03-03T23:16:02.714Z,2.97
2019-03-03T23:19:15.079Z,2.90
2019-03-03T23:22:21.007Z,4.33
2019-03-03T23:25:30.128Z,2.20
2019-03-03T23:27:59.584Z,1.70
2019-03-03T23:30:27.540Z,1.57
2019-03-03T23:32:55.540Z,1.30
2019-03-03T23:35:22.460Z,1.67
2019-03-03T23:37:50.252Z,2.17
2019-03-03T23:40:19.003Z,1.50
2019-03-03T23:42:46.771Z,1.60
2019-03-03T23:45:13.912Z,1.47
2019-03-03T23:47:41.192Z,1.70
2019-03-03T23:50:08.613Z,1.60
2019-03-03T23:52:35.580Z,1.80
2019-03-03T23:55:03.055Z,1.70
2019-03-03T23:57:30.568Z,1.97
2019-03-03T23:59:57.915Z,1.90
